Terminal Aerodrome Forecast
Issued by NWS Wilmington, NC

Home | Current Version | Previous Version | Text Only | Print | Product List | Glossary On
Versions: 1 2 3 4 5 6 7 8 9 10 11 12 13 14 15
000
FTUS42 KILM 241130
TAFMYR
TAF
KMYR 241130Z 2412/2512 03006KT P6SM SKC
     FM241500 06011KT P6SM FEW040
     FM241900 10012KT P6SM SCT050
     FM250200 VRB04KT P6SM SKC=

USA.gov is the U.S. government's official web portal to all federal, state and local government web resources and services.